Time;durP1;ratioP1;P1;durP2;ratioP2;P2;SDS_P1;SDS_P2;PMS_P1;PMS_P2;Temp;Humidity;BMP_temperature;BMP_pressure;BME280_temperature;BME280_humidity;BME280_pressure;Samples;Min_cycle;Max_cycle;Signal;HPM_P1;HPM_P2
2022/10/26 00:00:49;;;;;;;13.10;5.50;;;;;;;-141.28;100.00;50033.84;5134910;27;20233;-76
2022/10/26 00:03:16;;;;;;;14.27;5.03;;;;;;;-141.28;100.00;50033.84;5136283;27;20221;-77
2022/10/26 00:05:43;;;;;;;13.90;5.30;;;;;;;-141.28;100.00;50043.66;5135005;27;20198;-80
2022/10/26 00:08:11;;;;;;;10.67;5.43;;;;;;;-141.28;100.00;50043.66;5134568;27;20202;-75
2022/10/26 00:10:39;;;;;;;10.67;4.87;;;;;;;-141.28;100.00;50059.34;5135055;27;20202;-77
2022/10/26 00:13:10;;;;;;;14.70;5.07;;;;;;;-141.28;100.00;50063.28;5137285;27;20263;-75
2022/10/26 00:15:41;;;;;;;11.40;4.87;;;;;;;-141.28;100.00;50049.53;5141569;27;20214;-75
2022/10/26 00:18:09;;;;;;;17.70;5.77;;;;;;;-141.28;100.00;50053.47;5143870;27;20238;-77
2022/10/26 00:20:36;;;;;;;13.67;5.37;;;;;;;-141.28;100.00;50086.84;5144912;27;20279;-78
2022/10/26 00:23:03;;;;;;;14.77;5.77;;;;;;;-141.28;100.00;50045.63;5134211;27;20623;-78
2022/10/26 00:25:29;;;;;;;13.10;5.50;;;;;;;-141.28;100.00;50063.28;5142218;27;20198;-75
2022/10/26 00:27:56;;;;;;;10.37;5.20;;;;;;;-141.28;100.00;50094.69;5134530;27;20195;-78
2022/10/26 00:30:23;;;;;;;13.47;5.23;;;;;;;-141.28;100.00;50053.47;5125742;27;20202;-78
2022/10/26 00:32:52;;;;;;;12.97;4.97;;;;;;;-141.28;100.00;50077.03;5134587;27;20202;-76
2022/10/26 00:35:19;;;;;;;13.53;5.70;;;;;;;-141.28;100.00;50122.16;5134756;27;20255;-76
2022/10/26 00:37:46;;;;;;;13.00;5.60;;;;;;;-141.28;100.00;50059.34;5134342;27;20221;-77
2022/10/26 00:40:13;;;;;;;15.67;5.50;;;;;;;-141.28;100.00;50086.84;5134585;27;20206;-76
2022/10/26 00:42:40;;;;;;;17.10;5.60;;;;;;;-141.28;100.00;50055.44;5134141;27;20210;-75
2022/10/26 00:45:19;;;;;;;14.20;5.33;;;;;;;-141.28;100.00;50082.91;5134540;27;20692;-78
2022/10/26 00:47:49;;;;;;;15.13;5.20;;;;;;;-141.28;100.00;50059.34;5134514;27;20202;-76
2022/10/26 00:50:20;;;;;;;16.57;5.03;;;;;;;-141.28;100.00;50082.91;5132939;27;20263;-75
2022/10/26 00:52:48;;;;;;;10.73;5.20;;;;;;;-141.28;100.00;50059.34;5122622;27;20206;-79
2022/10/26 00:55:20;;;;;;;13.20;5.07;;;;;;;-141.28;100.00;50027.97;5133148;27;20209;-79
2022/10/26 00:57:47;;;;;;;11.37;5.30;;;;;;;-141.28;100.00;50059.34;5134017;27;20229;-76
2022/10/26 01:00:15;;;;;;;12.70;5.60;;;;;;;-141.28;100.00;50075.06;5115692;27;20237;-77
2022/10/26 01:02:43;;;;;;;11.17;4.90;;;;;;;-141.28;100.00;50029.91;5134306;27;20632;-77
2022/10/26 01:05:11;;;;;;;17.70;5.80;;;;;;;-141.28;100.00;50082.91;5133593;27;20194;-78
2022/10/26 01:07:41;;;;;;;9.67;4.30;;;;;;;-141.28;100.00;50078.97;5133762;27;20213;-79
2022/10/26 01:10:09;;;;;;;15.73;5.30;;;;;;;-141.28;100.00;50092.72;5133729;27;20666;-75
2022/10/26 01:12:37;;;;;;;10.93;5.60;;;;;;;-141.28;100.00;50092.72;5133687;27;20644;-76
2022/10/26 01:15:04;;;;;;;10.30;5.00;;;;;;;-141.28;100.00;50059.34;5133443;27;20225;-74
2022/10/26 01:17:54;;;;;;;13.57;5.17;;;;;;;-141.28;100.00;50075.06;5136443;27;20202;-76
2022/10/26 01:21:08;;;;;;;14.83;5.03;;;;;;;-141.28;100.00;50177.13;5126990;27;20285;-77
2022/10/26 01:23:50;;;;;;;12.73;5.10;;;;;;;-141.28;100.00;50220.28;5100264;27;20202;-75
2022/10/26 01:26:43;;;;;;;11.20;5.00;;;;;;;-141.28;100.00;50163.38;5133319;27;20211;-78
2022/10/26 01:29:26;;;;;;;11.97;5.10;;;;;;;-141.28;100.00;50161.41;5120666;27;20195;-77
2022/10/26 01:31:58;;;;;;;17.37;6.83;;;;;;;-141.28;100.00;50126.09;5129471;27;20332;-78
2022/10/26 01:34:32;;;;;;;19.00;6.83;;;;;;;-141.28;100.00;50071.13;5126010;27;20254;-80
2022/10/26 01:37:07;;;;;;;18.37;7.57;;;;;;;-141.28;100.00;50041.69;5129406;27;20237;-76
2022/10/26 01:39:39;;;;;;;21.97;8.00;;;;;;;-141.28;100.00;50039.72;5132987;27;20246;-80
2022/10/26 01:42:10;;;;;;;15.90;7.87;;;;;;;-141.28;100.00;49988.69;5132948;27;20217;-79
2022/10/26 01:44:41;;;;;;;15.63;7.20;;;;;;;-141.28;100.00;49923.94;5133110;27;20582;-76
2022/10/26 01:47:14;;;;;;;22.20;7.87;;;;;;;-141.28;100.00;49872.91;5119171;27;20226;-77
2022/10/26 01:49:46;;;;;;;19.73;7.80;;;;;;;-141.28;100.00;49817.97;5132997;27;20251;-77
2022/10/26 01:52:13;;;;;;;14.87;8.00;;;;;;;-141.28;100.00;49761.06;5133243;27;20262;-80
2022/10/26 01:54:40;;;;;;;24.30;9.00;;;;;;;-141.28;100.00;49688.44;5133027;27;20212;-75
2022/10/26 01:57:11;;;;;;;19.13;8.90;;;;;;;-141.28;100.00;49615.84;5132906;27;20202;-78
2022/10/26 02:00:02;;;;;;;19.90;8.87;;;;;;;-141.28;100.00;49590.31;5132693;27;20662;-75
2022/10/26 02:02:52;;;;;;;19.40;8.47;;;;;;;-141.28;100.00;49551.06;5132797;27;20253;-78
2022/10/26 02:05:32;;;;;;;19.10;9.50;;;;;;;-141.28;100.00;49478.47;5132597;27;20198;-80
2022/10/26 02:08:11;;;;;;;22.60;9.07;;;;;;;-141.28;100.00;49415.69;5132657;27;20596;-80
2022/10/26 02:10:54;;;;;;;20.70;8.80;;;;;;;-141.28;100.00;49394.09;5120009;27;20209;-79
2022/10/26 02:13:29;;;;;;;21.23;9.00;;;;;;;-141.28;100.00;49335.22;5132359;27;20238;-77
2022/10/26 02:16:02;;;;;;;21.33;8.43;;;;;;;-141.28;100.00;49294.03;5132750;27;20205;-77
2022/10/26 02:18:35;;;;;;;25.60;9.77;;;;;;;-141.28;100.00;49266.56;5132384;27;20604;-75
2022/10/26 02:21:09;;;;;;;19.63;9.17;;;;;;;-141.28;100.00;49227.31;5132856;27;20229;-79
2022/10/26 02:23:39;;;;;;;28.80;9.30;;;;;;;-141.28;100.00;49203.75;5119687;28;20630;-76
2022/10/26 02:26:09;;;;;;;20.77;9.50;;;;;;;-141.28;100.00;49192.00;5132578;28;20202;-75
2022/10/26 02:28:39;;;;;;;26.63;10.53;;;;;;;-141.28;100.00;49168.44;5132508;28;20250;-75
2022/10/26 02:31:09;;;;;;;20.40;9.73;;;;;;;-141.28;100.00;49150.78;5132345;28;20274;-75
2022/10/26 02:33:41;;;;;;;24.73;10.37;;;;;;;-141.28;100.00;49125.28;5132788;28;20202;-78
2022/10/26 02:36:14;;;;;;;27.17;9.80;;;;;;;-141.28;100.00;49125.28;5132632;28;20577;-76
2022/10/26 02:38:42;;;;;;;28.77;10.63;;;;;;;-141.28;100.00;49148.81;5135061;28;20194;-76
2022/10/26 02:41:12;;;;;;;24.93;10.10;;;;;;;-141.28;100.00;49144.91;5131795;28;20233;-75
2022/10/26 02:43:44;;;;;;;23.90;9.47;;;;;;;-141.28;100.00;49137.06;5132414;28;20665;-76
2022/10/26 02:46:15;;;;;;;18.50;9.80;;;;;;;-141.28;100.00;49140.97;5134697;27;20202;-77
2022/10/26 02:48:43;;;;;;;23.43;11.37;;;;;;;-141.28;100.00;49127.25;5136670;27;20198;-77
2022/10/26 02:51:14;;;;;;;28.67;11.20;;;;;;;-141.28;100.00;49105.66;5136298;27;20206;-77
2022/10/26 02:53:49;;;;;;;25.77;10.57;;;;;;;-141.28;100.00;49103.69;5136643;27;20267;-76
2022/10/26 02:56:22;;;;;;;25.40;10.97;;;;;;;-141.28;100.00;49113.50;5136633;27;20201;-76
2022/10/26 02:58:54;;;;;;;47.07;11.70;;;;;;;-141.28;100.00;49078.19;5136526;27;20624;-78
2022/10/26 03:01:21;;;;;;;26.53;10.23;;;;;;;-141.28;100.00;49109.59;5135874;27;20727;-76
2022/10/26 03:03:49;;;;;;;26.20;10.30;;;;;;;-141.28;100.00;49113.50;5136274;27;20715;-75
2022/10/26 03:06:21;;;;;;;23.07;9.77;;;;;;;-141.28;100.00;49129.19;5122918;27;20198;-79
2022/10/26 03:08:48;;;;;;;27.63;10.43;;;;;;;-141.28;100.00;49137.06;5136288;27;20198;-76
2022/10/26 03:11:15;;;;;;;27.33;10.20;;;;;;;-141.28;100.00;49125.28;5135817;27;20198;-75
2022/10/26 03:13:42;;;;;;;22.10;9.27;;;;;;;-141.28;100.00;49129.19;5136663;27;20225;-78
2022/10/26 03:16:10;;;;;;;23.63;10.40;;;;;;;-141.28;100.00;49144.91;5135511;27;20267;-75
2022/10/26 03:18:36;;;;;;;32.13;10.17;;;;;;;-141.28;100.00;49137.06;5136379;27;20226;-76
2022/10/26 03:21:05;;;;;;;30.80;11.27;;;;;;;-141.28;100.00;49119.38;5135517;27;20210;-76
2022/10/26 03:23:32;;;;;;;37.10;10.90;;;;;;;-141.28;100.00;49129.19;5123110;27;20209;-76
2022/10/26 03:25:59;;;;;;;30.80;11.37;;;;;;;-141.28;100.00;49129.19;5135774;27;20202;-76
2022/10/26 03:28:27;;;;;;;23.23;10.10;;;;;;;-141.28;100.00;49133.13;5135872;27;20251;-80
2022/10/26 03:30:54;;;;;;;25.03;10.13;;;;;;;-141.28;100.00;49140.97;5135625;27;20198;-76
2022/10/26 03:33:21;;;;;;;30.67;10.30;;;;;;;-141.28;100.00;49123.31;5135513;27;20289;-80
2022/10/26 03:35:54;;;;;;;26.07;10.57;;;;;;;-141.28;100.00;49121.34;5135930;27;20665;-78
2022/10/26 03:38:23;;;;;;;24.60;9.93;;;;;;;-141.28;100.00;49117.44;5135749;27;20209;-77
2022/10/26 03:40:49;;;;;;;33.93;10.17;;;;;;;-141.28;100.00;49129.19;5135164;27;20289;-76
2022/10/26 03:43:16;;;;;;;45.33;12.00;;;;;;;-141.28;100.00;49140.97;5135344;27;20229;-75
2022/10/26 03:45:43;;;;;;;32.83;11.67;;;;;;;-141.28;100.00;49125.28;5135177;27;20205;-76
2022/10/26 03:48:10;;;;;;;31.10;11.50;;;;;;;-141.28;100.00;49144.91;5134969;27;20251;-76
2022/10/26 03:50:37;;;;;;;36.43;12.87;;;;;;;-141.28;100.00;49156.66;5135294;27;20199;-76
2022/10/26 03:53:04;;;;;;;31.87;12.33;;;;;;;-141.28;100.00;49170.41;5135361;27;20195;-77
2022/10/26 03:55:33;;;;;;;37.80;13.07;;;;;;;-141.28;100.00;49199.84;5136719;27;20653;-75
2022/10/26 03:58:00;;;;;;;30.43;13.40;;;;;;;-141.28;100.00;49195.91;5135758;27;20207;-77
2022/10/26 04:00:28;;;;;;;41.40;14.13;;;;;;;-141.28;100.00;49164.53;5135202;27;20247;-78
2022/10/26 04:02:57;;;;;;;31.83;14.73;;;;;;;-141.28;100.00;49219.47;5135214;27;20590;-78
2022/10/26 04:05:25;;;;;;;33.33;12.40;;;;;;;-141.28;100.00;49223.38;5135063;27;20198;-76
2022/10/26 04:07:54;;;;;;;34.20;11.97;;;;;;;-141.28;100.00;49239.09;5135286;27;20231;-78
2022/10/26 04:10:21;;;;;;;26.83;10.67;;;;;;;-141.28;100.00;49262.63;5121706;27;20653;-75
2022/10/26 04:12:50;;;;;;;23.40;10.60;;;;;;;-141.28;100.00;49262.63;5134430;27;20237;-79
2022/10/26 04:15:17;;;;;;;26.40;10.80;;;;;;;-141.28;100.00;49294.03;5135045;27;20194;-77
2022/10/26 04:17:44;;;;;;;27.50;10.17;;;;;;;-141.28;100.00;49325.41;5135061;27;20202;-79
2022/10/26 04:20:12;;;;;;;23.27;10.17;;;;;;;-141.28;100.00;49325.41;5135111;27;20243;-78
2022/10/26 04:22:39;;;;;;;30.30;11.90;;;;;;;-141.28;100.00;49348.97;5134869;27;20222;-77
2022/10/26 04:25:07;;;;;;;27.97;10.73;;;;;;;-141.28;100.00;49343.06;5134888;27;20203;-78
2022/10/26 04:27:35;;;;;;;29.60;11.47;;;;;;;-141.28;100.00;49354.84;5134292;27;20202;-76
2022/10/26 04:30:07;;;;;;;38.77;11.77;;;;;;;-141.28;100.00;49382.31;5134599;27;20728;-79
2022/10/26 04:32:34;;;;;;;43.73;13.50;;;;;;;-141.28;100.00;49384.28;5137932;27;20198;-75
2022/10/26 04:35:00;;;;;;;62.13;15.63;;;;;;;-141.28;100.00;49392.13;5139546;27;20221;-79
2022/10/26 04:37:27;;;;;;;53.27;13.27;;;;;;;-141.28;100.00;49401.94;5134224;27;20190;-77
2022/10/26 04:39:54;;;;;;;49.30;13.27;;;;;;;-141.28;100.00;49417.63;5134082;27;20198;-74
2022/10/26 04:42:21;;;;;;;39.20;11.20;;;;;;;-141.28;100.00;49447.06;5135013;27;20302;-77
2022/10/26 04:44:49;;;;;;;30.63;11.43;;;;;;;-141.28;100.00;49439.22;5135147;27;20203;-75
2022/10/26 04:47:17;;;;;;;28.17;13.00;;;;;;;-141.28;100.00;49447.06;5134915;27;20214;-80
2022/10/26 04:49:44;;;;;;;25.10;12.03;;;;;;;-141.28;100.00;49470.63;5135461;27;20632;-76
2022/10/26 04:52:11;;;;;;;38.90;13.60;;;;;;;-141.28;100.00;49482.41;5136149;27;20672;-77
2022/10/26 04:54:37;;;;;;;32.37;12.80;;;;;;;-141.28;100.00;49486.31;5134493;27;20198;-77
2022/10/26 04:57:04;;;;;;;50.17;12.73;;;;;;;-141.28;100.00;49498.09;5133901;27;20198;-77
2022/10/26 04:59:32;;;;;;;33.47;12.67;;;;;;;-141.28;100.00;49545.19;5134402;27;20218;-77
2022/10/26 05:01:59;;;;;;;26.87;12.23;;;;;;;-141.28;100.00;49564.81;5133700;27;20230;-76
2022/10/26 05:04:27;;;;;;;45.87;13.80;;;;;;;-141.28;100.00;49596.22;5133896;27;20603;-78
2022/10/26 05:06:54;;;;;;;29.60;11.50;;;;;;;-141.28;100.00;49607.97;5133886;27;20259;-79
2022/10/26 05:09:20;;;;;;;31.50;12.03;;;;;;;-141.28;100.00;49623.69;5133257;27;20206;-79
2022/10/26 05:11:47;;;;;;;26.47;11.90;;;;;;;-141.28;100.00;49647.22;5133165;27;20779;-77
2022/10/26 05:14:14;;;;;;;35.13;11.73;;;;;;;-141.28;100.00;49670.78;5135877;27;20614;-79
2022/10/26 05:16:43;;;;;;;43.90;11.73;;;;;;;-141.28;100.00;49713.94;5133941;27;20718;-79
2022/10/26 05:19:10;;;;;;;51.80;13.43;;;;;;;-141.28;100.00;49761.06;5134240;27;20206;-75
2022/10/26 05:21:38;;;;;;;43.40;12.10;;;;;;;-141.28;100.00;49796.38;5133180;27;20198;-75
2022/10/26 05:24:06;;;;;;;34.40;11.70;;;;;;;-141.28;100.00;49884.69;5135559;27;20205;-79
2022/10/26 05:26:33;;;;;;;35.87;11.67;;;;;;;-141.28;100.00;49914.13;5142846;27;20258;-74
2022/10/26 05:29:00;;;;;;;45.77;12.60;;;;;;;-141.28;100.00;49929.81;5151671;27;20212;-77
2022/10/26 05:31:27;;;;;;;36.80;11.40;;;;;;;-141.28;100.00;50000.47;5153039;27;20206;-75
2022/10/26 05:33:54;;;;;;;31.03;13.40;;;;;;;-141.28;100.00;50165.34;5146459;27;20210;-75
2022/10/26 05:36:21;;;;;;;41.10;14.73;;;;;;;-141.28;100.00;50298.81;5134105;27;20734;-76
2022/10/26 05:38:50;;;;;;;62.33;18.03;;;;;;;-141.28;100.00;50424.44;5134201;27;20199;-76
2022/10/26 05:41:16;;;;;;;42.20;14.93;;;;;;;-141.28;100.00;50569.69;5133746;27;20201;-76
2022/10/26 05:43:43;;;;;;;40.97;16.70;;;;;;;-141.28;100.00;50683.53;5133565;27;20234;-80
2022/10/26 05:46:10;;;;;;;42.67;14.50;;;;;;;-141.28;100.00;50730.66;5133324;27;20274;-78
2022/10/26 05:48:37;;;;;;;36.87;11.80;;;;;;;-141.28;100.00;50730.66;5133053;27;20255;-77
2022/10/26 05:51:04;;;;;;;27.73;10.07;;;;;;;-141.28;100.00;50734.56;5133310;27;20202;-76
2022/10/26 05:53:31;;;;;;;54.07;13.07;;;;;;;-141.28;100.00;50659.97;5134102;27;20202;-79
2022/10/26 05:56:00;;;;;;;31.13;11.60;;;;;;;-141.28;100.00;50683.53;5133330;27;20263;-76
2022/10/26 05:58:28;;;;;;;44.57;11.57;;;;;;;-141.28;100.00;50730.66;5133096;27;20198;-80
2022/10/26 06:01:10;;;;;;;45.17;11.73;;;;;;;-141.28;100.00;50699.22;5132912;27;20200;-78
2022/10/26 06:03:52;;;;;;;37.03;9.70;;;;;;;-141.28;100.00;50748.31;5132240;27;20233;-78
2022/10/26 06:06:19;;;;;;;50.53;11.97;;;;;;;-141.28;100.00;50940.69;5121599;27;20199;-75
2022/10/26 06:08:47;;;;;;;28.80;10.33;;;;;;;-141.28;100.00;50970.13;5131334;27;20209;-76
2022/10/26 06:11:16;;;;;;;31.20;11.47;;;;;;;-141.28;100.00;50978.00;5132560;27;20202;-77
2022/10/26 06:13:43;;;;;;;38.53;13.17;;;;;;;-141.28;100.00;51009.41;5132443;27;20198;-76
2022/10/26 06:16:25;;;;;;;45.03;15.23;;;;;;;-141.28;100.00;51005.47;5132805;27;20198;-76
2022/10/26 06:19:02;;;;;;;35.33;13.23;;;;;;;-141.28;100.00;50956.41;5132901;27;20210;-75
2022/10/26 06:21:43;;;;;;;48.17;11.97;;;;;;;-141.28;100.00;50934.81;5131762;27;20672;-77
2022/10/26 06:24:18;;;;;;;50.27;11.23;;;;;;;-141.28;100.00;50850.38;5132726;27;20229;-76
2022/10/26 06:26:55;;;;;;;64.80;12.23;;;;;;;-141.28;100.00;50824.88;5133123;28;20198;-79
2022/10/26 06:29:32;;;;;;;46.93;11.07;;;;;;;-141.28;100.00;50758.13;5132459;28;20209;-77
2022/10/26 06:32:01;;;;;;;32.17;12.37;;;;;;;-141.28;100.00;50764.00;5135928;28;20198;-76
2022/10/26 06:34:33;;;;;;;29.93;11.83;;;;;;;-141.28;100.00;50871.97;5131993;28;20264;-76
2022/10/26 06:37:03;;;;;;;34.13;12.40;;;;;;;-141.28;100.00;50934.81;5132997;28;20225;-79
2022/10/26 06:39:35;;;;;;;29.90;9.57;;;;;;;-141.28;100.00;50860.19;5132739;28;20210;-78
2022/10/26 06:42:04;;;;;;;30.17;10.40;;;;;;;-141.28;100.00;50830.75;5132772;28;20665;-76
2022/10/26 06:44:32;;;;;;;31.47;10.23;;;;;;;-141.28;100.00;50811.13;5133104;28;20202;-76
2022/10/26 06:47:07;;;;;;;37.97;11.07;;;;;;;-141.28;100.00;50813.09;5133315;28;20206;-75
2022/10/26 06:49:37;;;;;;;40.07;11.93;;;;;;;-141.28;100.00;50805.25;5133917;28;20660;-74
2022/10/26 06:52:13;;;;;;;27.70;10.33;;;;;;;-141.28;100.00;50762.06;5133289;28;20254;-75
2022/10/26 06:54:49;;;;;;;33.57;10.70;;;;;;;-141.28;100.00;50705.13;5133945;28;20198;-75
2022/10/26 06:57:19;;;;;;;44.93;12.87;;;;;;;-141.28;100.00;50691.38;5129843;28;20225;-74
2022/10/26 06:59:50;;;;;;;27.17;12.47;;;;;;;-141.28;100.00;50634.47;5133217;28;20242;-77
2022/10/26 07:02:17;;;;;;;34.07;12.53;;;;;;;-141.28;100.00;50652.13;5132131;28;20784;-76
2022/10/26 07:04:44;;;;;;;38.33;11.80;;;;;;;-141.28;100.00;50581.47;5132404;28;20262;-75
2022/10/26 07:07:14;;;;;;;32.37;12.33;;;;;;;-141.28;100.00;50581.47;5131692;28;20213;-78
2022/10/26 07:09:41;;;;;;;32.47;11.87;;;;;;;-141.28;100.00;50597.16;5132155;28;20722;-76
2022/10/26 07:12:08;;;;;;;36.93;12.50;;;;;;;-141.28;100.00;50587.34;5131553;28;20757;-78
2022/10/26 07:14:36;;;;;;;31.80;12.43;;;;;;;-141.28;100.00;50620.72;5132424;28;20202;-78
2022/10/26 07:17:05;;;;;;;21.37;11.20;;;;;;;-141.28;100.00;50553.97;5131968;28;20191;-78
2022/10/26 07:19:32;;;;;;;30.07;12.17;;;;;;;-141.28;100.00;50514.72;5132341;28;20198;-77
2022/10/26 07:22:00;;;;;;;28.60;11.37;;;;;;;-141.28;100.00;50477.44;5131835;28;20714;-78
2022/10/26 07:24:27;;;;;;;25.63;10.97;;;;;;;-141.28;100.00;50534.34;5131585;28;20279;-76
2022/10/26 07:26:55;;;;;;;23.83;11.60;;;;;;;-141.28;100.00;50487.25;5132044;28;20190;-76
2022/10/26 07:29:23;;;;;;;24.30;11.40;;;;;;;-141.28;100.00;50479.38;5132242;28;20229;-78
2022/10/26 07:31:52;;;;;;;27.07;11.40;;;;;;;-141.28;100.00;50510.78;5133379;27;20199;-76
2022/10/26 07:34:19;;;;;;;26.57;11.83;;;;;;;-141.28;100.00;50447.97;5135318;27;20256;-76
2022/10/26 07:36:45;;;;;;;29.60;11.03;;;;;;;-141.28;100.00;50410.69;5135064;27;20202;-76
2022/10/26 07:39:12;;;;;;;24.93;11.50;;;;;;;-141.28;100.00;50444.06;5135227;27;20599;-78
2022/10/26 07:41:39;;;;;;;23.23;10.57;;;;;;;-141.28;100.00;50416.56;5136013;27;20206;-76
2022/10/26 07:44:06;;;;;;;26.30;11.20;;;;;;;-141.28;100.00;50281.13;5135071;27;20226;-79
2022/10/26 07:46:32;;;;;;;20.60;11.03;;;;;;;-141.28;100.00;50267.41;5136666;27;20209;-76
2022/10/26 07:49:01;;;;;;;21.37;11.40;;;;;;;-141.28;100.00;50371.44;5139017;27;20198;-76
2022/10/26 07:51:28;;;;;;;26.70;10.97;;;;;;;-141.28;100.00;50361.63;5135985;27;20206;-78
2022/10/26 07:53:56;;;;;;;25.17;10.93;;;;;;;-141.28;100.00;50283.09;5135735;27;20661;-76
2022/10/26 07:56:22;;;;;;;22.50;10.30;;;;;;;-141.28;100.00;50184.97;5134997;27;20209;-80
2022/10/26 07:58:52;;;;;;;19.60;10.23;;;;;;;-141.28;100.00;50130.00;5134556;27;20649;-79
2022/10/26 08:01:19;;;;;;;19.50;9.47;;;;;;;-141.28;100.00;50106.47;5135593;27;20217;-80
2022/10/26 08:03:47;;;;;;;19.17;10.20;;;;;;;-141.28;100.00;50106.47;5134786;27;20230;-79
2022/10/26 08:06:15;;;;;;;22.73;8.97;;;;;;;-141.28;100.00;50118.25;5134898;27;20209;-76
2022/10/26 08:08:42;;;;;;;15.43;8.40;;;;;;;-141.28;100.00;50200.66;5135115;27;20251;-79
2022/10/26 08:11:09;;;;;;;17.00;8.17;;;;;;;-141.28;100.00;50414.63;5134655;27;20202;-76
2022/10/26 08:13:36;;;;;;;18.27;8.03;;;;;;;-141.28;100.00;50369.47;5134712;27;20231;-76
2022/10/26 08:16:05;;;;;;;25.97;7.93;;;;;;;-141.28;100.00;50377.31;5134071;27;20281;-76
2022/10/26 08:18:32;;;;;;;14.67;7.23;;;;;;;-141.28;100.00;50379.28;5137232;27;20198;-77
2022/10/26 08:21:02;;;;;;;14.97;6.37;;;;;;;-141.28;100.00;50290.97;5134540;27;20198;-77
2022/10/26 08:23:31;;;;;;;14.53;6.10;;;;;;;-141.28;100.00;50271.31;5134641;27;20261;-79
2022/10/26 08:25:59;;;;;;;10.03;5.90;;;;;;;-141.28;100.00;50357.69;5134856;27;20606;-78
2022/10/26 08:28:26;;;;;;;12.00;5.67;;;;;;;-141.28;100.00;50328.25;5134803;27;20285;-76
2022/10/26 08:30:53;;;;;;;11.30;6.30;;;;;;;-141.28;100.00;50285.06;5135060;27;20238;-76
2022/10/26 08:33:21;;;;;;;11.97;6.40;;;;;;;-141.28;100.00;50181.03;5134342;27;20218;-76
2022/10/26 08:35:48;;;;;;;9.43;5.37;;;;;;;-141.28;100.00;50302.72;5135230;27;20208;-78
2022/10/26 08:38:15;;;;;;;11.07;5.70;;;;;;;-141.28;100.00;50310.59;5137533;27;20198;-78
2022/10/26 08:40:43;;;;;;;15.20;5.10;;;;;;;-141.28;100.00;50322.34;5139689;27;20214;-76
2022/10/26 08:43:17;;;;;;;12.03;5.20;;;;;;;-141.28;100.00;50353.75;5139869;27;20263;-78
2022/10/26 08:45:51;;;;;;;10.17;5.50;;;;;;;-141.28;100.00;50340.03;5134212;27;20201;-79
2022/10/26 08:48:23;;;;;;;12.67;4.80;;;;;;;-141.28;100.00;50381.25;5136744;27;20275;-75
2022/10/26 08:50:54;;;;;;;10.43;5.00;;;;;;;-141.28;100.00;50428.34;5135255;27;20190;-78
2022/10/26 08:53:29;;;;;;;6.63;4.40;;;;;;;-141.28;100.00;50453.88;5133835;27;21176;-77
2022/10/26 08:56:02;;;;;;;7.27;4.00;;;;;;;-141.28;100.00;50381.25;5133748;27;20644;-79
2022/10/26 08:58:37;;;;;;;11.70;4.97;;;;;;;-141.28;100.00;50381.25;5133765;27;20653;-79
2022/10/26 09:01:07;;;;;;;10.03;4.30;;;;;;;-141.28;100.00;50406.75;5133584;27;20745;-74
2022/10/26 09:03:34;;;;;;;10.90;5.50;;;;;;;-141.28;100.00;50444.06;5133389;27;20241;-77
2022/10/26 09:06:18;;;;;;;10.43;3.90;;;;;;;-141.28;100.00;50236.00;5134068;27;20210;-78
2022/10/26 09:08:56;;;;;;;10.27;4.23;;;;;;;-141.28;100.00;50239.94;5136620;27;20190;-78
2022/10/26 09:11:46;;;;;;;12.03;4.37;;;;;;;-141.28;100.00;50200.66;5133552;27;20733;-76
2022/10/26 09:14:18;;;;;;;8.07;3.80;;;;;;;-141.28;100.00;50192.81;5133521;27;20209;-78
2022/10/26 09:16:57;;;;;;;5.70;3.97;;;;;;;-141.28;100.00;50157.50;5133348;27;20221;-80
2022/10/26 09:19:49;;;;;;;8.27;3.70;;;;;;;-141.28;100.00;50098.63;5132929;27;20729;-76
2022/10/26 09:22:24;;;;;;;8.50;4.20;;;;;;;-141.28;100.00;50039.72;5120636;27;20258;-79
2022/10/26 09:24:54;;;;;;;5.10;3.30;;;;;;;-141.28;100.00;49941.59;5133040;27;20655;-80
2022/10/26 09:27:27;;;;;;;9.77;3.50;;;;;;;-141.28;100.00;49739.47;5132913;27;20253;-76
2022/10/26 09:29:56;;;;;;;13.70;3.47;;;;;;;-141.28;100.00;49541.25;5133052;27;20271;-78
2022/10/26 09:32:27;;;;;;;5.47;3.27;;;;;;;-141.28;100.00;49454.94;5132988;27;20202;-76
2022/10/26 09:34:59;;;;;;;7.60;3.43;;;;;;;-141.28;100.00;49961.22;5132922;27;20678;-76
2022/10/26 09:37:31;;;;;;;9.53;3.43;;;;;;;-141.28;100.00;49319.53;5132564;27;20577;-77
2022/10/26 09:40:06;;;;;;;7.67;3.47;;;;;;;-141.28;100.00;49392.13;5132604;27;20201;-79
2022/10/26 09:42:41;;;;;;;9.93;4.13;;;;;;;-141.28;100.00;49678.63;5132551;27;20699;-79
2022/10/26 09:45:17;;;;;;;12.57;4.03;;;;;;;-141.28;100.00;49258.69;5132775;27;20229;-77
2022/10/26 09:47:51;;;;;;;8.17;3.00;;;;;;;-141.28;100.00;48793.69;5133057;27;20206;-77
2022/10/26 09:50:24;;;;;;;7.73;3.30;;;;;;;-141.28;100.00;49072.31;5133089;27;20208;-75
2022/10/26 09:52:51;;;;;;;7.27;2.93;;;;;;;-141.28;100.00;49054.66;5132969;27;20286;-76
2022/10/26 09:55:19;;;;;;;7.17;2.57;;;;;;;-141.28;100.00;48940.84;5131788;27;20267;-77
2022/10/26 09:57:51;;;;;;;8.03;3.70;;;;;;;-141.28;100.00;49023.25;5132878;27;20228;-78
2022/10/26 10:00:26;;;;;;;6.07;2.87;;;;;;;-141.28;100.00;49670.78;5132343;27;20203;-77
2022/10/26 10:02:54;;;;;;;13.03;3.77;;;;;;;-141.28;100.00;48984.00;5132607;27;20655;-77
2022/10/26 10:05:30;;;;;;;5.33;2.80;;;;;;;-141.28;100.00;49009.50;5132654;27;20234;-77
2022/10/26 10:08:12;;;;;;;5.43;3.20;;;;;;;-141.28;100.00;48952.63;5132450;27;20197;-80
2022/10/26 10:10:53;;;;;;;6.73;3.40;;;;;;;-141.28;100.00;49015.41;5121071;27;20645;-78
2022/10/26 10:13:23;;;;;;;13.80;3.40;;;;;;;-141.28;100.00;48989.91;5131978;27;20317;-78
2022/10/26 10:15:54;;;;;;;11.13;3.20;;;;;;;-141.28;100.00;49038.94;5132659;27;20207;-77
2022/10/26 10:18:23;;;;;;;7.67;3.30;;;;;;;-141.28;100.00;48980.09;5132329;27;20206;-77
2022/10/26 10:20:54;;;;;;;8.30;3.07;;;;;;;-141.28;100.00;48952.63;5132892;27;20198;-76
2022/10/26 10:23:26;;;;;;;8.50;3.10;;;;;;;-141.28;90.01;48905.53;5132758;27;20668;-78
2022/10/26 10:26:00;;;;;;;7.70;3.50;;;;;;;-141.28;83.67;48827.06;5134914;27;20285;-81
2022/10/26 10:28:29;;;;;;;6.53;2.90;;;;;;;-141.28;85.14;48940.84;5132975;28;20669;-76
2022/10/26 10:30:58;;;;;;;7.77;2.83;;;;;;;-141.28;94.41;48991.84;5132156;28;20300;-76
2022/10/26 10:33:34;;;;;;;3.63;2.30;;;;;;;-141.28;95.44;48999.72;5132513;28;20202;-77
2022/10/26 10:36:06;;;;;;;5.37;2.67;;;;;;;-141.28;91.05;48972.25;5118920;28;20229;-80
2022/10/26 10:38:38;;;;;;;4.17;2.40;;;;;;;-141.28;86.01;48989.91;5131883;28;20214;-79
2022/10/26 10:41:06;;;;;;;5.37;2.03;;;;;;;-141.28;80.52;48929.06;5132440;28;20251;-81
2022/10/26 10:43:34;;;;;;;6.33;2.43;;;;;;;-141.28;78.56;48944.78;5132654;28;20597;-77
2022/10/26 10:46:01;;;;;;;3.53;2.33;;;;;;;-141.28;80.21;48972.25;5131840;28;20198;-78
2022/10/26 10:48:29;;;;;;;6.30;2.90;;;;;;;-141.28;82.10;48960.47;5132137;28;20202;-78
2022/10/26 10:50:59;;;;;;;9.00;2.63;;;;;;;-141.28;80.44;48936.91;5121164;28;20681;-77
2022/10/26 10:53:32;;;;;;;4.23;2.30;;;;;;;-141.28;77.72;48913.38;5119135;28;20262;-75
2022/10/26 10:56:14;;;;;;;4.40;2.50;;;;;;;-141.28;79.56;48972.25;5131878;28;20685;-76
2022/10/26 10:58:53;;;;;;;4.83;2.27;;;;;;;-141.28;78.27;48936.91;5133305;28;20209;-76
2022/10/26 11:01:22;;;;;;;6.20;2.53;;;;;;;-141.28;72.34;48897.69;5138824;28;20194;-75
2022/10/26 11:04:19;;;;;;;11.47;2.40;;;;;;;-141.28;68.74;48874.13;5132698;27;20317;-77
2022/10/26 11:06:48;;;;;;;3.73;2.13;;;;;;;-141.28;73.59;48929.06;5131181;27;20198;-77
2022/10/26 11:09:19;;;;;;;3.17;2.30;;;;;;;-141.28;71.98;48901.59;5135794;27;20602;-76
2022/10/26 11:11:50;;;;;;;8.27;2.47;;;;;;;-141.28;68.58;48889.84;5136234;27;20285;-81
2022/10/26 11:14:25;;;;;;;8.03;2.60;;;;;;;-141.28;70.02;48885.91;5136112;27;20200;-77